sensor_id;sensor_type;location;lat;lon;timestamp;temperature;humidity
28767;DHT22;15921;52.034;20.650;2022-12-05T00:00:16;1.70;99.90
28767;DHT22;15921;52.034;20.650;2022-12-05T00:02:41;1.70;99.90
28767;DHT22;15921;52.034;20.650;2022-12-05T00:05:09;1.70;99.90
28767;DHT22;15921;52.034;20.650;2022-12-05T00:07:36;1.80;99.90
28767;DHT22;15921;52.034;20.650;2022-12-05T00:10:02;1.80;99.90
28767;DHT22;15921;52.034;20.650;2022-12-05T00:12:28;1.70;99.90
28767;DHT22;15921;52.034;20.650;2022-12-05T00:14:53;1.70;99.90
28767;DHT22;15921;52.034;20.650;2022-12-05T00:17:19;1.70;99.90
28767;DHT22;15921;52.034;20.650;2022-12-05T00:19:45;1.70;99.90
28767;DHT22;15921;52.034;20.650;2022-12-05T00:22:10;1.70;99.90
28767;DHT22;15921;52.034;20.650;2022-12-05T00:24:36;1.60;99.90
28767;DHT22;15921;52.034;20.650;2022-12-05T00:27:02;1.60;99.90
28767;DHT22;15921;52.034;20.650;2022-12-05T00:29:27;1.60;99.90
28767;DHT22;15921;52.034;20.650;2022-12-05T00:31:53;1.60;99.90
28767;DHT22;15921;52.034;20.650;2022-12-05T00:34:18;1.60;99.90
28767;DHT22;15921;52.034;20.650;2022-12-05T00:36:44;1.60;99.90
28767;DHT22;15921;52.034;20.650;2022-12-05T00:39:11;1.70;99.90
28767;DHT22;15921;52.034;20.650;2022-12-05T00:41:40;1.70;99.90
28767;DHT22;15921;52.034;20.650;2022-12-05T00:44:07;1.70;99.90
28767;DHT22;15921;52.034;20.650;2022-12-05T00:46:33;1.80;99.90
28767;DHT22;15921;52.034;20.650;2022-12-05T00:49:00;1.80;99.90
28767;DHT22;15921;52.034;20.650;2022-12-05T00:51:38;1.70;99.90
28767;DHT22;15921;52.034;20.650;2022-12-05T00:54:07;1.60;99.90
28767;DHT22;15921;52.034;20.650;2022-12-05T00:56:33;1.60;99.90
28767;DHT22;15921;52.034;20.650;2022-12-05T00:59:00;1.50;99.90
28767;DHT22;15921;52.034;20.650;2022-12-05T01:01:32;1.60;99.90
28767;DHT22;15921;52.034;20.650;2022-12-05T01:04:00;1.50;99.90
28767;DHT22;15921;52.034;20.650;2022-12-05T01:06:27;1.50;99.90
28767;DHT22;15921;52.034;20.650;2022-12-05T01:08:54;1.50;99.90
28767;DHT22;15921;52.034;20.650;2022-12-05T01:11:20;1.50;99.90
28767;DHT22;15921;52.034;20.650;2022-12-05T01:13:47;1.50;99.90
28767;DHT22;15921;52.034;20.650;2022-12-05T01:16:28;1.50;99.90
28767;DHT22;15921;52.034;20.650;2022-12-05T01:18:55;1.50;99.90
28767;DHT22;15921;52.034;20.650;2022-12-05T01:21:21;1.50;99.90
28767;DHT22;15921;52.034;20.650;2022-12-05T01:23:47;1.50;99.90
28767;DHT22;15921;52.034;20.650;2022-12-05T01:26:15;1.50;99.90
28767;DHT22;15921;52.034;20.650;2022-12-05T01:28:41;1.60;99.90
28767;DHT22;15921;52.034;20.650;2022-12-05T01:31:11;1.60;99.90
28767;DHT22;15921;52.034;20.650;2022-12-05T01:33:40;1.60;99.90
28767;DHT22;15921;52.034;20.650;2022-12-05T01:36:09;1.60;99.90
28767;DHT22;15921;52.034;20.650;2022-12-05T01:38:35;1.60;99.90
28767;DHT22;15921;52.034;20.650;2022-12-05T01:41:05;1.60;99.90
28767;DHT22;15921;52.034;20.650;2022-12-05T01:43:31;1.60;99.90
28767;DHT22;15921;52.034;20.650;2022-12-05T01:45:57;1.60;99.90
28767;DHT22;15921;52.034;20.650;2022-12-05T01:48:34;1.50;99.90
28767;DHT22;15921;52.034;20.650;2022-12-05T01:51:00;1.50;99.90
28767;DHT22;15921;52.034;20.650;2022-12-05T01:53:27;1.40;99.90
28767;DHT22;15921;52.034;20.650;2022-12-05T01:55:55;1.50;99.90
28767;DHT22;15921;52.034;20.650;2022-12-05T01:58:23;1.50;99.90
28767;DHT22;15921;52.034;20.650;2022-12-05T02:00:51;1.40;99.90
28767;DHT22;15921;52.034;20.650;2022-12-05T02:03:18;1.40;99.90
28767;DHT22;15921;52.034;20.650;2022-12-05T02:05:47;1.40;99.90
28767;DHT22;15921;52.034;20.650;2022-12-05T02:08:13;1.40;99.90
28767;DHT22;15921;52.034;20.650;2022-12-05T02:10:50;1.40;99.90
28767;DHT22;15921;52.034;20.650;2022-12-05T02:18:57;1.40;99.90
28767;DHT22;15921;52.034;20.650;2022-12-05T02:24:08;1.40;99.90
28767;DHT22;15921;52.034;20.650;2022-12-05T02:32:24;1.30;99.90
28767;DHT22;15921;52.034;20.650;2022-12-05T02:40:34;1.30;99.90
28767;DHT22;15921;52.034;20.650;2022-12-05T02:43:12;1.30;99.90
28767;DHT22;15921;52.034;20.650;2022-12-05T02:45:43;1.30;99.90
28767;DHT22;15921;52.034;20.650;2022-12-05T02:48:11;1.30;99.90
28767;DHT22;15921;52.034;20.650;2022-12-05T02:50:39;1.30;99.90
28767;DHT22;15921;52.034;20.650;2022-12-05T02:53:10;1.30;99.90
28767;DHT22;15921;52.034;20.650;2022-12-05T02:55:38;1.20;99.90
28767;DHT22;15921;52.034;20.650;2022-12-05T02:58:08;1.20;99.90
28767;DHT22;15921;52.034;20.650;2022-12-05T03:00:38;1.20;99.90
28767;DHT22;15921;52.034;20.650;2022-12-05T03:03:13;1.20;99.90
28767;DHT22;15921;52.034;20.650;2022-12-05T03:05:48;1.20;99.90
28767;DHT22;15921;52.034;20.650;2022-12-05T03:08:21;1.20;99.90
28767;DHT22;15921;52.034;20.650;2022-12-05T03:10:49;1.20;99.90
28767;DHT22;15921;52.034;20.650;2022-12-05T03:13:20;1.20;99.90
28767;DHT22;15921;52.034;20.650;2022-12-05T03:15:51;1.20;99.90
28767;DHT22;15921;52.034;20.650;2022-12-05T03:18:32;1.20;99.90
28767;DHT22;15921;52.034;20.650;2022-12-05T03:23:50;1.20;99.90
28767;DHT22;15921;52.034;20.650;2022-12-05T03:37:11;1.20;99.90
28767;DHT22;15921;52.034;20.650;2022-12-05T03:39:42;1.30;99.90
28767;DHT22;15921;52.034;20.650;2022-12-05T03:42:12;1.30;99.90
28767;DHT22;15921;52.034;20.650;2022-12-05T03:44:49;1.40;99.90
28767;DHT22;15921;52.034;20.650;2022-12-05T03:47:41;1.40;99.90
28767;DHT22;15921;52.034;20.650;2022-12-05T03:50:24;1.40;99.90
28767;DHT22;15921;52.034;20.650;2022-12-05T03:53:04;1.40;99.90
28767;DHT22;15921;52.034;20.650;2022-12-05T03:55:32;1.40;99.90
28767;DHT22;15921;52.034;20.650;2022-12-05T03:58:06;1.30;99.90
28767;DHT22;15921;52.034;20.650;2022-12-05T04:00:36;1.30;99.90
28767;DHT22;15921;52.034;20.650;2022-12-05T04:03:13;1.30;99.90
28767;DHT22;15921;52.034;20.650;2022-12-05T04:05:47;1.30;99.90
28767;DHT22;15921;52.034;20.650;2022-12-05T04:08:28;1.30;99.90
28767;DHT22;15921;52.034;20.650;2022-12-05T04:11:06;1.30;99.90
28767;DHT22;15921;52.034;20.650;2022-12-05T04:16:11;1.40;99.90
28767;DHT22;15921;52.034;20.650;2022-12-05T04:19:12;1.30;99.90
28767;DHT22;15921;52.034;20.650;2022-12-05T04:21:44;1.30;99.90
28767;DHT22;15921;52.034;20.650;2022-12-05T04:24:31;1.40;99.90
28767;DHT22;15921;52.034;20.650;2022-12-05T04:27:24;1.40;99.90
28767;DHT22;15921;52.034;20.650;2022-12-05T04:30:08;1.30;99.90
28767;DHT22;15921;52.034;20.650;2022-12-05T04:35:24;1.30;99.90
28767;DHT22;15921;52.034;20.650;2022-12-05T04:37:53;1.30;99.90
28767;DHT22;15921;52.034;20.650;2022-12-05T04:40:37;1.30;99.90
28767;DHT22;15921;52.034;20.650;2022-12-05T04:43:05;1.30;99.90
28767;DHT22;15921;52.034;20.650;2022-12-05T04:45:32;1.30;99.90
28767;DHT22;15921;52.034;20.650;2022-12-05T04:48:02;1.30;99.90
28767;DHT22;15921;52.034;20.650;2022-12-05T04:50:31;1.30;99.90
28767;DHT22;15921;52.034;20.650;2022-12-05T04:52:59;1.30;99.90
28767;DHT22;15921;52.034;20.650;2022-12-05T04:55:26;1.30;99.90
28767;DHT22;15921;52.034;20.650;2022-12-05T04:58:20;1.30;99.90
28767;DHT22;15921;52.034;20.650;2022-12-05T05:06:03;1.30;99.90
28767;DHT22;15921;52.034;20.650;2022-12-05T05:08:29;1.30;99.90
28767;DHT22;15921;52.034;20.650;2022-12-05T05:11:15;1.30;99.90
28767;DHT22;15921;52.034;20.650;2022-12-05T05:13:42;1.30;99.90
28767;DHT22;15921;52.034;20.650;2022-12-05T05:16:11;1.30;99.90
28767;DHT22;15921;52.034;20.650;2022-12-05T05:18:37;1.30;99.90
28767;DHT22;15921;52.034;20.650;2022-12-05T05:21:02;1.30;99.90
28767;DHT22;15921;52.034;20.650;2022-12-05T05:23:28;1.30;99.90
28767;DHT22;15921;52.034;20.650;2022-12-05T05:25:55;1.30;99.90
28767;DHT22;15921;52.034;20.650;2022-12-05T05:28:21;1.30;99.90
28767;DHT22;15921;52.034;20.650;2022-12-05T05:30:47;1.30;99.90
28767;DHT22;15921;52.034;20.650;2022-12-05T05:33:14;1.30;99.90
28767;DHT22;15921;52.034;20.650;2022-12-05T05:35:40;1.30;99.90
28767;DHT22;15921;52.034;20.650;2022-12-05T05:38:06;1.30;99.90
28767;DHT22;15921;52.034;20.650;2022-12-05T05:40:34;1.30;99.90
28767;DHT22;15921;52.034;20.650;2022-12-05T05:43:01;1.40;99.90
28767;DHT22;15921;52.034;20.650;2022-12-05T05:45:27;1.40;99.90
28767;DHT22;15921;52.034;20.650;2022-12-05T05:47:52;1.40;99.90
28767;DHT22;15921;52.034;20.650;2022-12-05T05:50:18;1.40;99.90
28767;DHT22;15921;52.034;20.650;2022-12-05T05:52:43;1.40;99.90
28767;DHT22;15921;52.034;20.650;2022-12-05T05:55:09;1.50;99.90
28767;DHT22;15921;52.034;20.650;2022-12-05T05:57:35;1.50;99.90
28767;DHT22;15921;52.034;20.650;2022-12-05T06:00:06;1.40;99.90
28767;DHT22;15921;52.034;20.650;2022-12-05T06:02:33;1.40;99.90
28767;DHT22;15921;52.034;20.650;2022-12-05T06:04:59;1.40;99.90
28767;DHT22;15921;52.034;20.650;2022-12-05T06:07:25;1.40;99.90
28767;DHT22;15921;52.034;20.650;2022-12-05T06:09:51;1.50;99.90
28767;DHT22;15921;52.034;20.650;2022-12-05T06:12:17;1.40;99.90
28767;DHT22;15921;52.034;20.650;2022-12-05T06:14:47;1.40;99.90
28767;DHT22;15921;52.034;20.650;2022-12-05T06:17:13;1.40;99.90
28767;DHT22;15921;52.034;20.650;2022-12-05T06:19:39;1.40;99.90
28767;DHT22;15921;52.034;20.650;2022-12-05T06:22:04;1.40;99.90
28767;DHT22;15921;52.034;20.650;2022-12-05T06:24:30;1.50;99.90
28767;DHT22;15921;52.034;20.650;2022-12-05T06:26:56;1.50;99.90
28767;DHT22;15921;52.034;20.650;2022-12-05T06:29:21;1.60;99.90
28767;DHT22;15921;52.034;20.650;2022-12-05T06:31:47;1.60;99.90
28767;DHT22;15921;52.034;20.650;2022-12-05T06:34:13;1.60;99.90
28767;DHT22;15921;52.034;20.650;2022-12-05T06:36:38;1.60;99.90
28767;DHT22;15921;52.034;20.650;2022-12-05T06:39:04;1.50;99.90
28767;DHT22;15921;52.034;20.650;2022-12-05T06:41:30;1.50;99.90
28767;DHT22;15921;52.034;20.650;2022-12-05T06:43:57;1.60;99.90
28767;DHT22;15921;52.034;20.650;2022-12-05T06:46:23;1.60;99.90
28767;DHT22;15921;52.034;20.650;2022-12-05T06:48:55;1.60;99.90
28767;DHT22;15921;52.034;20.650;2022-12-05T06:51:21;1.60;99.90
28767;DHT22;15921;52.034;20.650;2022-12-05T06:53:47;1.50;99.90
28767;DHT22;15921;52.034;20.650;2022-12-05T06:56:15;1.60;99.90
28767;DHT22;15921;52.034;20.650;2022-12-05T06:58:43;1.60;99.90
28767;DHT22;15921;52.034;20.650;2022-12-05T07:01:12;1.60;99.90
28767;DHT22;15921;52.034;20.650;2022-12-05T07:03:57;1.70;99.90
28767;DHT22;15921;52.034;20.650;2022-12-05T07:06:23;1.60;99.90
28767;DHT22;15921;52.034;20.650;2022-12-05T07:08:49;1.70;99.90
28767;DHT22;15921;52.034;20.650;2022-12-05T07:11:15;1.70;99.90
28767;DHT22;15921;52.034;20.650;2022-12-05T07:13:41;1.70;99.90
28767;DHT22;15921;52.034;20.650;2022-12-05T07:16:07;1.70;99.90
28767;DHT22;15921;52.034;20.650;2022-12-05T07:18:33;1.70;99.90
28767;DHT22;15921;52.034;20.650;2022-12-05T07:21:01;1.70;99.90
28767;DHT22;15921;52.034;20.650;2022-12-05T07:23:28;1.80;99.90
28767;DHT22;15921;52.034;20.650;2022-12-05T07:25:54;1.80;99.90
28767;DHT22;15921;52.034;20.650;2022-12-05T07:28:20;1.80;99.90
28767;DHT22;15921;52.034;20.650;2022-12-05T07:30:46;1.80;99.90
28767;DHT22;15921;52.034;20.650;2022-12-05T07:33:11;1.80;99.90
28767;DHT22;15921;52.034;20.650;2022-12-05T07:35:37;1.80;99.90
28767;DHT22;15921;52.034;20.650;2022-12-05T07:38:02;1.80;99.90
28767;DHT22;15921;52.034;20.650;2022-12-05T07:40:28;1.80;99.90
28767;DHT22;15921;52.034;20.650;2022-12-05T07:42:54;1.80;99.90
28767;DHT22;15921;52.034;20.650;2022-12-05T07:45:20;1.80;99.90
28767;DHT22;15921;52.034;20.650;2022-12-05T07:47:46;1.80;99.90
28767;DHT22;15921;52.034;20.650;2022-12-05T07:50:12;1.90;99.90
28767;DHT22;15921;52.034;20.650;2022-12-05T07:52:38;1.90;99.90
28767;DHT22;15921;52.034;20.650;2022-12-05T07:55:05;1.90;99.90
28767;DHT22;15921;52.034;20.650;2022-12-05T07:57:31;1.90;99.90
28767;DHT22;15921;52.034;20.650;2022-12-05T07:59:56;1.90;99.90
28767;DHT22;15921;52.034;20.650;2022-12-05T08:02:22;2.00;99.90
28767;DHT22;15921;52.034;20.650;2022-12-05T08:04:48;1.90;99.90
28767;DHT22;15921;52.034;20.650;2022-12-05T08:07:13;1.90;99.90
28767;DHT22;15921;52.034;20.650;2022-12-05T08:09:39;1.90;99.90
28767;DHT22;15921;52.034;20.650;2022-12-05T08:12:05;1.90;99.90
28767;DHT22;15921;52.034;20.650;2022-12-05T08:14:31;1.90;99.90
28767;DHT22;15921;52.034;20.650;2022-12-05T08:16:57;1.90;99.90
28767;DHT22;15921;52.034;20.650;2022-12-05T08:19:22;1.90;99.90
28767;DHT22;15921;52.034;20.650;2022-12-05T08:21:48;2.00;99.90
28767;DHT22;15921;52.034;20.650;2022-12-05T08:24:13;2.00;99.90
28767;DHT22;15921;52.034;20.650;2022-12-05T08:26:40;2.00;99.90
28767;DHT22;15921;52.034;20.650;2022-12-05T08:29:08;2.10;99.90
28767;DHT22;15921;52.034;20.650;2022-12-05T08:31:39;2.20;99.90
28767;DHT22;15921;52.034;20.650;2022-12-05T08:34:06;2.20;99.90
28767;DHT22;15921;52.034;20.650;2022-12-05T08:36:32;2.20;99.90
28767;DHT22;15921;52.034;20.650;2022-12-05T08:38:59;2.20;99.90
28767;DHT22;15921;52.034;20.650;2022-12-05T08:41:26;2.20;99.90
28767;DHT22;15921;52.034;20.650;2022-12-05T08:43:56;2.30;99.90
28767;DHT22;15921;52.034;20.650;2022-12-05T08:46:23;2.30;99.90
28767;DHT22;15921;52.034;20.650;2022-12-05T08:48:48;2.30;99.90
28767;DHT22;15921;52.034;20.650;2022-12-05T08:51:14;2.30;99.90
28767;DHT22;15921;52.034;20.650;2022-12-05T08:53:40;2.30;99.90
28767;DHT22;15921;52.034;20.650;2022-12-05T08:56:07;2.30;99.90
28767;DHT22;15921;52.034;20.650;2022-12-05T08:58:34;2.30;99.90
28767;DHT22;15921;52.034;20.650;2022-12-05T09:01:11;2.30;99.90
28767;DHT22;15921;52.034;20.650;2022-12-05T09:03:38;2.30;99.90
28767;DHT22;15921;52.034;20.650;2022-12-05T09:08:36;2.40;99.90
28767;DHT22;15921;52.034;20.650;2022-12-05T09:11:10;2.60;99.90
28767;DHT22;15921;52.034;20.650;2022-12-05T09:13:36;2.60;99.90
28767;DHT22;15921;52.034;20.650;2022-12-05T09:16:17;2.60;99.90
28767;DHT22;15921;52.034;20.650;2022-12-05T09:18:43;2.50;99.90
28767;DHT22;15921;52.034;20.650;2022-12-05T09:21:14;2.50;99.90
28767;DHT22;15921;52.034;20.650;2022-12-05T09:23:41;2.50;99.90
28767;DHT22;15921;52.034;20.650;2022-12-05T09:26:09;2.50;99.90
28767;DHT22;15921;52.034;20.650;2022-12-05T09:28:36;2.50;99.90
28767;DHT22;15921;52.034;20.650;2022-12-05T09:31:06;2.50;99.90
28767;DHT22;15921;52.034;20.650;2022-12-05T09:33:35;2.50;99.90
28767;DHT22;15921;52.034;20.650;2022-12-05T09:36:06;2.50;99.90
28767;DHT22;15921;52.034;20.650;2022-12-05T09:38:32;2.50;99.90
28767;DHT22;15921;52.034;20.650;2022-12-05T09:44:02;2.50;99.90
28767;DHT22;15921;52.034;20.650;2022-12-05T09:46:48;2.50;99.90
28767;DHT22;15921;52.034;20.650;2022-12-05T09:49:17;2.50;99.90
28767;DHT22;15921;52.034;20.650;2022-12-05T09:51:44;2.50;99.90
28767;DHT22;15921;52.034;20.650;2022-12-05T09:54:12;2.60;99.90
28767;DHT22;15921;52.034;20.650;2022-12-05T09:56:40;2.60;99.90
28767;DHT22;15921;52.034;20.650;2022-12-05T09:59:12;2.60;99.90
28767;DHT22;15921;52.034;20.650;2022-12-05T10:07:49;2.70;99.90
28767;DHT22;15921;52.034;20.650;2022-12-05T10:15:58;2.60;99.90
28767;DHT22;15921;52.034;20.650;2022-12-05T10:21:10;2.60;99.90
28767;DHT22;15921;52.034;20.650;2022-12-05T10:26:11;2.60;99.90
28767;DHT22;15921;52.034;20.650;2022-12-05T10:28:54;2.60;99.90
28767;DHT22;15921;52.034;20.650;2022-12-05T10:31:27;2.60;99.90
28767;DHT22;15921;52.034;20.650;2022-12-05T10:34:14;2.60;99.90
28767;DHT22;15921;52.034;20.650;2022-12-05T10:37:21;2.60;99.90
28767;DHT22;15921;52.034;20.650;2022-12-05T10:39:48;2.60;99.90
28767;DHT22;15921;52.034;20.650;2022-12-05T10:42:27;2.60;99.90
28767;DHT22;15921;52.034;20.650;2022-12-05T10:45:01;2.70;99.90
28767;DHT22;15921;52.034;20.650;2022-12-05T10:47:28;2.70;99.90
28767;DHT22;15921;52.034;20.650;2022-12-05T10:50:15;2.70;99.90
28767;DHT22;15921;52.034;20.650;2022-12-05T10:52:42;2.70;99.90
28767;DHT22;15921;52.034;20.650;2022-12-05T10:55:13;2.80;99.90
28767;DHT22;15921;52.034;20.650;2022-12-05T10:57:40;2.90;99.90
28767;DHT22;15921;52.034;20.650;2022-12-05T11:00:14;2.90;99.90
28767;DHT22;15921;52.034;20.650;2022-12-05T11:02:41;2.90;99.90
28767;DHT22;15921;52.034;20.650;2022-12-05T11:05:07;2.90;99.90
28767;DHT22;15921;52.034;20.650;2022-12-05T11:10:21;2.90;99.90
28767;DHT22;15921;52.034;20.650;2022-12-05T11:12:48;3.00;99.90
28767;DHT22;15921;52.034;20.650;2022-12-05T11:17:44;3.00;99.90
28767;DHT22;15921;52.034;20.650;2022-12-05T11:22:43;3.20;99.90
28767;DHT22;15921;52.034;20.650;2022-12-05T11:27:50;3.20;99.90
28767;DHT22;15921;52.034;20.650;2022-12-05T11:30:21;3.10;99.90
28767;DHT22;15921;52.034;20.650;2022-12-05T11:32:47;3.20;99.90
28767;DHT22;15921;52.034;20.650;2022-12-05T11:35:27;3.30;99.90
28767;DHT22;15921;52.034;20.650;2022-12-05T11:38:01;3.30;99.90
28767;DHT22;15921;52.034;20.650;2022-12-05T11:41:13;3.40;99.90
28767;DHT22;15921;52.034;20.650;2022-12-05T11:43:56;3.40;99.90
28767;DHT22;15921;52.034;20.650;2022-12-05T12:08:24;3.50;99.90
28767;DHT22;15921;52.034;20.650;2022-12-05T12:11:12;3.50;99.90
28767;DHT22;15921;52.034;20.650;2022-12-05T12:19:59;3.20;99.90
28767;DHT22;15921;52.034;20.650;2022-12-05T12:31:01;3.30;99.90
28767;DHT22;15921;52.034;20.650;2022-12-05T12:55:45;3.10;99.90
28767;DHT22;15921;52.034;20.650;2022-12-05T13:03:45;2.90;99.90
28767;DHT22;15921;52.034;20.650;2022-12-05T13:06:17;2.90;99.90
28767;DHT22;15921;52.034;20.650;2022-12-05T13:09:05;2.90;99.90
28767;DHT22;15921;52.034;20.650;2022-12-05T13:11:38;2.80;99.90
28767;DHT22;15921;52.034;20.650;2022-12-05T13:14:11;2.90;99.90
28767;DHT22;15921;52.034;20.650;2022-12-05T13:16:40;2.90;99.90
28767;DHT22;15921;52.034;20.650;2022-12-05T13:21:49;2.90;99.90
28767;DHT22;15921;52.034;20.650;2022-12-05T13:24:18;2.90;99.90
28767;DHT22;15921;52.034;20.650;2022-12-05T13:26:48;2.80;99.90
28767;DHT22;15921;52.034;20.650;2022-12-05T13:29:30;2.80;99.90
28767;DHT22;15921;52.034;20.650;2022-12-05T13:32:00;2.80;99.90
28767;DHT22;15921;52.034;20.650;2022-12-05T13:34:44;2.80;99.90
28767;DHT22;15921;52.034;20.650;2022-12-05T13:37:21;2.80;99.90
28767;DHT22;15921;52.034;20.650;2022-12-05T13:43:26;2.80;99.90
28767;DHT22;15921;52.034;20.650;2022-12-05T13:46:08;2.80;99.90
28767;DHT22;15921;52.034;20.650;2022-12-05T13:48:38;2.80;99.90
28767;DHT22;15921;52.034;20.650;2022-12-05T13:51:12;2.90;99.90
28767;DHT22;15921;52.034;20.650;2022-12-05T13:53:47;2.90;99.90
28767;DHT22;15921;52.034;20.650;2022-12-05T13:58:53;2.90;99.90
28767;DHT22;15921;52.034;20.650;2022-12-05T14:03:58;2.80;99.90
28767;DHT22;15921;52.034;20.650;2022-12-05T14:17:41;2.80;99.90
28767;DHT22;15921;52.034;20.650;2022-12-05T14:28:48;2.90;99.90
28767;DHT22;15921;52.034;20.650;2022-12-05T14:34:24;2.80;99.90
28767;DHT22;15921;52.034;20.650;2022-12-05T14:37:19;2.80;99.90
28767;DHT22;15921;52.034;20.650;2022-12-05T14:39:51;2.70;99.90
28767;DHT22;15921;52.034;20.650;2022-12-05T14:42:22;2.70;99.90
28767;DHT22;15921;52.034;20.650;2022-12-05T14:44:50;2.80;99.90
28767;DHT22;15921;52.034;20.650;2022-12-05T14:47:27;2.80;99.90
28767;DHT22;15921;52.034;20.650;2022-12-05T14:52:27;2.70;99.90
28767;DHT22;15921;52.034;20.650;2022-12-05T14:55:00;2.70;99.90
28767;DHT22;15921;52.034;20.650;2022-12-05T14:57:27;2.70;99.90
28767;DHT22;15921;52.034;20.650;2022-12-05T14:59:57;2.80;99.90
28767;DHT22;15921;52.034;20.650;2022-12-05T15:02:33;2.80;99.90
28767;DHT22;15921;52.034;20.650;2022-12-05T15:07:39;2.70;99.90
28767;DHT22;15921;52.034;20.650;2022-12-05T15:10:23;2.70;99.90
28767;DHT22;15921;52.034;20.650;2022-12-05T15:12:56;2.80;99.90
28767;DHT22;15921;52.034;20.650;2022-12-05T15:15:42;2.80;99.90
28767;DHT22;15921;52.034;20.650;2022-12-05T15:18:12;2.80;99.90
28767;DHT22;15921;52.034;20.650;2022-12-05T15:20:54;2.80;99.90
28767;DHT22;15921;52.034;20.650;2022-12-05T15:23:40;2.80;99.90
28767;DHT22;15921;52.034;20.650;2022-12-05T15:26:39;2.80;99.90
28767;DHT22;15921;52.034;20.650;2022-12-05T15:31:35;2.70;99.90
28767;DHT22;15921;52.034;20.650;2022-12-05T15:34:06;2.70;99.90
28767;DHT22;15921;52.034;20.650;2022-12-05T15:36:41;2.70;99.90
28767;DHT22;15921;52.034;20.650;2022-12-05T15:39:50;2.70;99.90
28767;DHT22;15921;52.034;20.650;2022-12-05T15:42:21;2.80;99.90
28767;DHT22;15921;52.034;20.650;2022-12-05T15:44:47;2.80;99.90
28767;DHT22;15921;52.034;20.650;2022-12-05T15:47:22;2.80;99.90
28767;DHT22;15921;52.034;20.650;2022-12-05T15:49:48;2.80;99.90
28767;DHT22;15921;52.034;20.650;2022-12-05T15:54:43;2.80;99.90
28767;DHT22;15921;52.034;20.650;2022-12-05T15:57:15;2.80;99.90
28767;DHT22;15921;52.034;20.650;2022-12-05T16:00:11;2.80;99.90
28767;DHT22;15921;52.034;20.650;2022-12-05T16:02:46;2.80;99.90
28767;DHT22;15921;52.034;20.650;2022-12-05T16:05:23;2.80;99.90
28767;DHT22;15921;52.034;20.650;2022-12-05T16:07:50;2.70;99.90
28767;DHT22;15921;52.034;20.650;2022-12-05T16:10:18;2.80;99.90
28767;DHT22;15921;52.034;20.650;2022-12-05T16:12:46;2.80;99.90
28767;DHT22;15921;52.034;20.650;2022-12-05T16:17:51;2.80;99.90
28767;DHT22;15921;52.034;20.650;2022-12-05T16:22:54;2.80;99.90
28767;DHT22;15921;52.034;20.650;2022-12-05T16:25:25;2.90;99.90
28767;DHT22;15921;52.034;20.650;2022-12-05T16:27:56;2.90;99.90
28767;DHT22;15921;52.034;20.650;2022-12-05T16:30:23;2.90;99.90
28767;DHT22;15921;52.034;20.650;2022-12-05T16:32:57;2.90;99.90
28767;DHT22;15921;52.034;20.650;2022-12-05T16:35:38;2.90;99.90
28767;DHT22;15921;52.034;20.650;2022-12-05T16:46:42;2.90;99.90
28767;DHT22;15921;52.034;20.650;2022-12-05T16:48:47;2.80;99.90
28767;DHT22;15921;52.034;20.650;2022-12-05T16:51:40;2.90;99.90
28767;DHT22;15921;52.034;20.650;2022-12-05T16:54:06;2.90;99.90
28767;DHT22;15921;52.034;20.650;2022-12-05T16:56:32;2.90;99.90
28767;DHT22;15921;52.034;20.650;2022-12-05T16:59:06;2.90;99.90
28767;DHT22;15921;52.034;20.650;2022-12-05T17:01:34;2.90;99.90
28767;DHT22;15921;52.034;20.650;2022-12-05T17:04:00;2.90;99.90
28767;DHT22;15921;52.034;20.650;2022-12-05T17:06:27;2.90;99.90
28767;DHT22;15921;52.034;20.650;2022-12-05T17:08:53;2.90;99.90
28767;DHT22;15921;52.034;20.650;2022-12-05T17:11:24;2.90;99.90
28767;DHT22;15921;52.034;20.650;2022-12-05T17:13:51;2.90;99.90
28767;DHT22;15921;52.034;20.650;2022-12-05T17:16:18;2.90;99.90
28767;DHT22;15921;52.034;20.650;2022-12-05T17:18:45;2.90;99.90
28767;DHT22;15921;52.034;20.650;2022-12-05T17:21:22;2.90;99.90
28767;DHT22;15921;52.034;20.650;2022-12-05T17:23:48;2.90;99.90
28767;DHT22;15921;52.034;20.650;2022-12-05T17:26:16;2.90;99.90
28767;DHT22;15921;52.034;20.650;2022-12-05T17:28:43;3.00;99.90
28767;DHT22;15921;52.034;20.650;2022-12-05T17:31:13;3.00;99.90
28767;DHT22;15921;52.034;20.650;2022-12-05T17:33:41;3.10;99.90
28767;DHT22;15921;52.034;20.650;2022-12-05T17:36:07;3.10;99.90
28767;DHT22;15921;52.034;20.650;2022-12-05T17:38:33;3.10;99.90
28767;DHT22;15921;52.034;20.650;2022-12-05T17:40:59;3.00;99.90
28767;DHT22;15921;52.034;20.650;2022-12-05T17:43:24;3.00;99.90
28767;DHT22;15921;52.034;20.650;2022-12-05T17:45:50;3.00;99.90
28767;DHT22;15921;52.034;20.650;2022-12-05T17:48:17;3.10;99.90
28767;DHT22;15921;52.034;20.650;2022-12-05T17:50:45;3.10;99.90
28767;DHT22;15921;52.034;20.650;2022-12-05T17:53:15;3.00;99.90
28767;DHT22;15921;52.034;20.650;2022-12-05T17:55:42;3.10;99.90
28767;DHT22;15921;52.034;20.650;2022-12-05T17:58:08;3.10;99.90
28767;DHT22;15921;52.034;20.650;2022-12-05T18:00:35;3.10;99.90
28767;DHT22;15921;52.034;20.650;2022-12-05T18:03:00;3.10;99.90
28767;DHT22;15921;52.034;20.650;2022-12-05T18:05:26;3.10;99.90
28767;DHT22;15921;52.034;20.650;2022-12-05T18:07:52;3.10;99.90
28767;DHT22;15921;52.034;20.650;2022-12-05T18:10:20;3.10;99.90
28767;DHT22;15921;52.034;20.650;2022-12-05T18:12:47;3.10;99.90
28767;DHT22;15921;52.034;20.650;2022-12-05T18:15:13;3.10;99.90
28767;DHT22;15921;52.034;20.650;2022-12-05T18:17:40;3.00;99.90
28767;DHT22;15921;52.034;20.650;2022-12-05T18:20:07;3.00;99.90
28767;DHT22;15921;52.034;20.650;2022-12-05T18:22:34;3.10;99.90
28767;DHT22;15921;52.034;20.650;2022-12-05T18:25:00;3.10;99.90
28767;DHT22;15921;52.034;20.650;2022-12-05T18:27:28;3.10;99.90
28767;DHT22;15921;52.034;20.650;2022-12-05T18:29:54;3.10;99.90
28767;DHT22;15921;52.034;20.650;2022-12-05T18:32:21;3.00;99.90
28767;DHT22;15921;52.034;20.650;2022-12-05T18:34:46;3.10;99.90
28767;DHT22;15921;52.034;20.650;2022-12-05T18:37:13;3.10;99.90
28767;DHT22;15921;52.034;20.650;2022-12-05T18:39:38;3.20;99.90
28767;DHT22;15921;52.034;20.650;2022-12-05T18:42:05;3.20;99.90
28767;DHT22;15921;52.034;20.650;2022-12-05T18:44:31;3.30;99.90
28767;DHT22;15921;52.034;20.650;2022-12-05T18:46:57;3.20;99.90
28767;DHT22;15921;52.034;20.650;2022-12-05T18:49:23;3.20;99.90
28767;DHT22;15921;52.034;20.650;2022-12-05T18:51:49;3.20;99.90
28767;DHT22;15921;52.034;20.650;2022-12-05T18:54:15;3.30;99.90
28767;DHT22;15921;52.034;20.650;2022-12-05T18:56:41;3.30;99.90
28767;DHT22;15921;52.034;20.650;2022-12-05T18:59:15;3.20;99.90
28767;DHT22;15921;52.034;20.650;2022-12-05T19:01:41;3.20;99.90
28767;DHT22;15921;52.034;20.650;2022-12-05T19:04:10;3.20;99.90
28767;DHT22;15921;52.034;20.650;2022-12-05T19:06:40;3.20;99.90